KIXD

New Century Aircenter Airport

Olathe, Kansas, USA
METAR KIXD 221453Z 15008KT 10SM CLR 23/18 A3007 RMK AO2 SLP175 T02330178 51007
Observed Flight Rules
May-22 @ 14:53 UTC (59 minutes ago) Visual Flight Rules
Wind Visibility Clouds
150° at 8 knots 10 miles
  • Clear skies
Temperatures Readings
Current 23°C / 73°F
Dewpoint 18°C / 64°F
Humidity 74%
Altimeter 30.07" Hg
Pressure 1017.5 hPa
Elevation 342
METAR KIXD 221453Z 15008KT 10SM CLR 23/18 A3007 RMK AO2 SLP175 T02330178 51007
Observed Flight Rules
May-22 @ 14:53 UTC
(59 minutes ago)
VFR
Wind Visibility
150° at 8 knots 10 miles
Clouds
  • Clear skies
Temperature Dewpoint
23°C / 73°F 18°C / 64°F
Humidity Altimeter Pressure
74% 30.07" Hg 1017.5 hPa